createdAt,value
2022-09-04T00:03:08.509Z,99.9
2022-09-04T00:08:10.795Z,99.9
2022-09-04T00:13:13.087Z,99.9
2022-09-04T00:18:15.812Z,99.9
2022-09-04T00:23:18.357Z,99.9
2022-09-04T00:28:21.968Z,99.9
2022-09-04T00:33:24.802Z,99.9
2022-09-04T00:38:27.942Z,99.9
2022-09-04T00:43:30.267Z,99.9
2022-09-04T00:48:32.766Z,99.9
2022-09-04T00:53:35.100Z,99.9
2022-09-04T00:58:38.005Z,99.9
2022-09-04T01:03:42.392Z,99.9
2022-09-04T01:08:45.250Z,99.9
2022-09-04T01:13:48.034Z,99.9
2022-09-04T01:18:50.591Z,99.9
2022-09-04T01:23:53.482Z,99.9
2022-09-04T01:28:56.147Z,99.9
2022-09-04T01:33:58.571Z,99.9
2022-09-04T01:39:01.115Z,99.9
2022-09-04T01:44:03.446Z,99.9
2022-09-04T01:49:05.800Z,99.9
2022-09-04T01:54:08.085Z,99.9
2022-09-04T01:59:11.254Z,99.9
2022-09-04T02:04:15.615Z,99.9
2022-09-04T02:09:18.053Z,99.9
2022-09-04T02:14:20.652Z,99.9
2022-09-04T02:19:22.957Z,99.9
2022-09-04T02:24:25.322Z,99.9
2022-09-04T02:29:28.596Z,99.9
2022-09-04T02:34:35.473Z,99.9
2022-09-04T02:39:39.787Z,99.9
2022-09-04T02:44:42.117Z,99.9
2022-09-04T02:49:44.965Z,99.9
2022-09-04T02:54:47.671Z,99.9
2022-09-04T02:59:49.934Z,99.9
2022-09-04T03:04:52.213Z,99.9
2022-09-04T03:09:56.935Z,99.9
2022-09-04T03:14:59.187Z,99.9
2022-09-04T03:20:01.918Z,99.9
2022-09-04T03:25:05.734Z,99.9
2022-09-04T03:30:08.084Z,99.9
2022-09-04T03:35:10.845Z,99.9
2022-09-04T03:40:13.426Z,99.9
2022-09-04T03:45:15.741Z,99.9
2022-09-04T03:50:18.280Z,99.9
2022-09-04T03:55:20.581Z,99.9
2022-09-04T04:00:23.127Z,99.9
2022-09-04T04:05:25.769Z,99.9
2022-09-04T04:10:28.932Z,99.9
2022-09-04T04:15:31.611Z,99.9
2022-09-04T04:20:33.957Z,99.9
2022-09-04T04:25:36.300Z,99.9
2022-09-04T04:30:39.637Z,99.9
2022-09-04T04:35:42.274Z,99.9
2022-09-04T04:40:44.876Z,99.9
2022-09-04T04:45:48.127Z,99.9
2022-09-04T04:50:50.781Z,99.9
2022-09-04T04:55:53.887Z,99.9
2022-09-04T05:00:56.917Z,99.9
2022-09-04T05:05:59.523Z,99.9
2022-09-04T05:11:02.072Z,99.9
2022-09-04T05:16:21.303Z,99.9
2022-09-04T05:21:13.754Z,99.9
2022-09-04T05:26:16.359Z,99.9
2022-09-04T05:31:19.191Z,99.9
2022-09-04T05:36:22.051Z,99.9
2022-09-04T05:41:25.614Z,99.9
2022-09-04T05:46:28.428Z,99.9
2022-09-04T05:51:36.449Z,99.9
2022-09-04T05:56:39.229Z,99.9
2022-09-04T06:01:42.501Z,99.9
2022-09-04T06:06:45.004Z,99.9
2022-09-04T06:11:47.290Z,99.9
2022-09-04T06:16:49.635Z,99.9
2022-09-04T06:21:52.266Z,99.9
2022-09-04T06:26:54.556Z,99.9
2022-09-04T06:31:56.818Z,99.9
2022-09-04T06:36:59.388Z,99.9
2022-09-04T06:42:02.297Z,99.9
2022-09-04T06:47:04.901Z,99.9
2022-09-04T06:52:07.496Z,99.9
2022-09-04T06:57:10.345Z,99.9
2022-09-04T07:02:13.375Z,99.9
2022-09-04T07:07:18.799Z,99.9
2022-09-04T07:12:21.244Z,99.9
2022-09-04T07:17:25.962Z,99.9
2022-09-04T07:22:28.709Z,99.9
2022-09-04T07:27:31.270Z,99.9
2022-09-04T07:32:33.597Z,99.9
2022-09-04T07:37:36.183Z,99.9
2022-09-04T07:42:38.656Z,99.9
2022-09-04T07:47:41.348Z,99.9
2022-09-04T07:52:43.952Z,99.9
2022-09-04T07:57:46.232Z,99.9
2022-09-04T08:02:48.547Z,99.9
2022-09-04T08:07:51.070Z,99.9
2022-09-04T08:12:53.861Z,99.9
2022-09-04T08:17:58.397Z,99.9
2022-09-04T08:23:01.601Z,99.9
2022-09-04T08:28:03.943Z,99.9
2022-09-04T08:33:06.260Z,99.9
2022-09-04T08:38:08.526Z,99.9
2022-09-04T08:43:11.985Z,99.9
2022-09-04T08:48:16.712Z,99.9
2022-09-04T08:53:19.624Z,99.9
2022-09-04T08:58:22.517Z,99.9
2022-09-04T09:03:25.241Z,99.9
2022-09-04T09:08:34.355Z,99.9
2022-09-04T09:13:37.232Z,99.9
2022-09-04T09:18:43.042Z,99.9
2022-09-04T09:23:46.455Z,99.9
2022-09-04T09:28:48.876Z,99.9
2022-09-04T09:33:51.191Z,99.9
2022-09-04T09:38:53.994Z,99.9
2022-09-04T09:43:56.654Z,99.9
2022-09-04T09:48:59.240Z,98.2
2022-09-04T09:54:02.260Z,99.9
2022-09-04T09:59:05.047Z,97.3
2022-09-04T10:04:07.359Z,97.3
2022-09-04T10:09:12.506Z,96.4
2022-09-04T10:14:15.029Z,96.4
2022-09-04T10:19:17.337Z,95.3
2022-09-04T10:24:20.288Z,94.9
2022-09-04T10:29:23.434Z,93.4
2022-09-04T10:34:25.757Z,93.4
2022-09-04T10:39:28.531Z,91
2022-09-04T10:44:32.815Z,92.4
2022-09-04T10:49:35.370Z,92.3
2022-09-04T10:54:37.958Z,91.9
2022-09-04T10:59:40.568Z,92.1
2022-09-04T11:04:44.749Z,92.2
2022-09-04T11:09:50.786Z,91.3
2022-09-04T11:14:53.600Z,90.9
2022-09-04T11:19:56.444Z,93
2022-09-04T11:24:59.976Z,93.3
2022-09-04T11:30:05.035Z,95.1
2022-09-04T11:35:07.612Z,95.1
2022-09-04T11:40:10.379Z,98.3
2022-09-04T11:45:14.687Z,95.9
2022-09-04T11:50:17.378Z,94.6
2022-09-04T11:55:20.275Z,96.2
2022-09-04T12:00:22.754Z,96.2
2022-09-04T12:05:25.337Z,97.1
2022-09-04T12:10:28.128Z,97.3
2022-09-04T12:15:32.826Z,97.9
2022-09-04T12:20:36.009Z,98.3
2022-09-04T12:25:38.303Z,98.3
2022-09-04T12:30:40.621Z,98.8
2022-09-04T12:35:43.031Z,99.2
2022-09-04T12:40:46.101Z,99.3
2022-09-04T12:45:49.246Z,99.9
2022-09-04T12:50:53.273Z,99.9
2022-09-04T12:55:56.574Z,98.6
2022-09-04T13:06:00.985Z,99.3
2022-09-04T13:11:07.035Z,98.5
2022-09-04T13:16:12.220Z,98.7
2022-09-04T13:21:15.881Z,99.7
2022-09-04T13:26:21.208Z,99.9
2022-09-04T13:31:24.275Z,99.9
2022-09-04T13:36:27.526Z,99.9
2022-09-04T13:41:33.432Z,99.9
2022-09-04T13:46:36.519Z,99.9
2022-09-04T13:51:38.974Z,99.9
2022-09-04T13:56:42.154Z,99.9
2022-09-04T14:01:44.689Z,99.9
2022-09-04T14:06:47.403Z,99.9
2022-09-04T14:11:50.238Z,99.9
2022-09-04T14:16:53.795Z,99.9
2022-09-04T14:21:56.410Z,99.9
2022-09-04T14:26:59.605Z,99.9
2022-09-04T14:32:03.819Z,99.9
2022-09-04T14:37:06.722Z,99.9
2022-09-04T14:42:09.333Z,99.9
2022-09-04T14:47:12.506Z,99.9
2022-09-04T14:52:15.484Z,99.9
2022-09-04T14:57:17.937Z,99.9
2022-09-04T15:02:20.666Z,99.9
2022-09-04T15:07:24.065Z,99.9
2022-09-04T15:12:35.305Z,99.9
2022-09-04T15:17:28.981Z,99.9
2022-09-04T15:22:31.708Z,99.9
2022-09-04T15:27:34.514Z,99.9
2022-09-04T15:32:37.147Z,99.9
2022-09-04T15:37:40.250Z,99.9
2022-09-04T15:42:45.611Z,99.9
2022-09-04T15:47:48.539Z,99.9
2022-09-04T15:52:51.097Z,99.9
2022-09-04T15:57:55.292Z,99.9
2022-09-04T16:02:58.363Z,99.9
2022-09-04T16:08:06.263Z,99.9
2022-09-04T16:13:01.470Z,99.9
2022-09-04T16:18:04.310Z,99.9
2022-09-04T16:23:08.030Z,99.9
2022-09-04T16:28:12.449Z,99.9
2022-09-04T16:33:30.674Z,99.9
2022-09-04T16:38:28.680Z,99.9
2022-09-04T16:43:32.203Z,99.9
2022-09-04T16:48:41.616Z,99.9
2022-09-04T16:53:44.326Z,99.9
2022-09-04T16:58:47.375Z,99.9
2022-09-04T17:04:14.919Z,99.9
2022-09-04T17:08:59.053Z,99.9
2022-09-04T17:14:13.414Z,99.9
2022-09-04T17:19:05.772Z,99.9
2022-09-04T17:29:48.185Z,99.9
2022-09-04T17:31:01.490Z,99.9
2022-09-04T17:42:08.666Z,99.9
2022-09-04T17:43:25.320Z,99.9
2022-09-04T17:48:28.111Z,99.9
2022-09-04T17:53:41.390Z,99.9
2022-09-04T17:58:38.234Z,99.9
2022-09-04T18:04:25.688Z,99.9
2022-09-04T18:08:57.960Z,99.9
2022-09-04T18:13:50.616Z,99.9
2022-09-04T18:18:53.685Z,99.9
2022-09-04T18:23:58.412Z,99.9
2022-09-04T18:37:41.656Z,99.9
2022-09-04T18:39:11.033Z,99.9
2022-09-04T18:51:25.695Z,99.9
2022-09-04T18:52:39.912Z,99.9
2022-09-04T18:57:48.854Z,99.9
2022-09-04T19:02:56.847Z,99.9
2022-09-04T19:07:59.451Z,99.9
2022-09-04T19:13:01.891Z,99.9
2022-09-04T19:18:06.502Z,99.9
2022-09-04T19:23:18.591Z,99.9
2022-09-04T19:28:11.697Z,99.9
2022-09-04T19:33:14.531Z,99.9
2022-09-04T19:46:35.736Z,99.9
2022-09-04T19:47:53.408Z,99.9
2022-09-04T19:53:51.271Z,99.9
2022-09-04T19:58:04.788Z,99.9
2022-09-04T20:03:08.288Z,99.9
2022-09-04T20:08:10.723Z,99.9
2022-09-04T20:13:13.386Z,99.9
2022-09-04T20:18:16.036Z,99.9
2022-09-04T20:23:38.470Z,99.9
2022-09-04T20:28:20.916Z,99.9
2022-09-04T20:33:23.896Z,99.9
2022-09-04T20:38:26.891Z,99.9
2022-09-04T20:43:29.619Z,99.9
2022-09-04T20:53:20.461Z,99.9
2022-09-04T20:54:33.581Z,99.9
2022-09-04T21:03:32.753Z,99.9
2022-09-04T21:04:47.055Z,99.9
2022-09-04T21:09:58.200Z,99.9
2022-09-04T21:14:50.801Z,99.9
2022-09-04T21:19:53.827Z,99.9
2022-09-04T21:24:56.570Z,99.9
2022-09-04T21:29:58.913Z,99.9
2022-09-04T21:35:02.935Z,99.9
2022-09-04T21:40:46.664Z,99.9
2022-09-04T21:45:12.661Z,99.9
2022-09-04T21:50:24.203Z,99.9
2022-09-04T22:03:02.872Z,99.9
2022-09-04T22:04:19.317Z,99.9
2022-09-04T22:13:52.890Z,99.9
2022-09-04T22:20:06.611Z,99.9
2022-09-04T22:25:08.955Z,99.9
2022-09-04T22:30:12.168Z,99.9
2022-09-04T22:35:14.465Z,99.9
2022-09-04T22:40:17.318Z,99.9
2022-09-04T22:45:19.993Z,99.9
2022-09-04T22:50:51.983Z,99.9
2022-09-04T22:56:26.411Z,99.9
2022-09-04T23:00:28.923Z,99.9
2022-09-04T23:05:31.799Z,99.9
2022-09-04T23:14:19.109Z,99.9
2022-09-04T23:15:42.253Z,99.9
2022-09-04T23:27:03.871Z,99.9
2022-09-04T23:28:29.258Z,99.9
2022-09-04T23:33:31.432Z,99.9
2022-09-04T23:38:24.130Z,99.9
2022-09-04T23:43:27.310Z,99.9
2022-09-04T23:48:30.328Z,99.9
2022-09-04T23:53:32.858Z,99.9
2022-09-04T23:58:54.360Z,99.9
